createdAt,value
2018-04-25T00:00:52.665Z,3.43
2018-04-25T00:03:20.325Z,3.80
2018-04-25T00:05:47.797Z,4.03
2018-04-25T00:08:15.272Z,3.30
2018-04-25T00:10:42.786Z,4.73
2018-04-25T00:13:10.292Z,3.97
2018-04-25T00:15:37.999Z,4.10
2018-04-25T00:18:05.497Z,3.60
2018-04-25T00:20:32.976Z,4.43
2018-04-25T00:23:00.476Z,5.60
2018-04-25T00:25:27.952Z,5.00
2018-04-25T00:27:55.461Z,4.00
2018-04-25T00:30:22.934Z,3.97
2018-04-25T00:32:50.441Z,3.50
2018-04-25T00:35:17.941Z,5.00
2018-04-25T00:37:45.421Z,4.27
2018-04-25T00:40:13.309Z,4.57
2018-04-25T00:42:40.787Z,3.53
2018-04-25T00:45:08.275Z,4.97
2018-04-25T00:47:35.792Z,4.07
2018-04-25T00:50:03.265Z,3.73
2018-04-25T00:52:31.046Z,3.70
2018-04-25T00:54:58.529Z,3.43
2018-04-25T00:57:26.004Z,4.23
2018-04-25T00:59:53.529Z,5.53
2018-04-25T01:02:21.025Z,4.30
2018-04-25T01:04:48.549Z,3.80
2018-04-25T01:07:16.034Z,4.50
2018-04-25T01:09:43.513Z,5.20
2018-04-25T01:12:11.021Z,3.77
2018-04-25T01:14:38.506Z,3.87
2018-04-25T01:17:06.028Z,4.10
2018-04-25T01:19:33.517Z,4.73
2018-04-25T01:22:01.015Z,4.93
2018-04-25T01:24:28.516Z,4.50
2018-04-25T01:27:10.890Z,4.77
2018-04-25T01:29:39.200Z,4.83
2018-04-25T01:32:07.585Z,4.97
2018-04-25T01:34:46.640Z,7.20
2018-04-25T01:40:28.936Z,4.97
2018-04-25T01:42:57.989Z,5.40
2018-04-25T01:48:29.189Z,4.30
2018-04-25T01:50:58.038Z,5.07
2018-04-25T01:53:37.212Z,6.70
2018-04-25T01:56:16.345Z,4.00
2018-04-25T01:58:55.841Z,3.90
2018-04-25T02:01:22.804Z,5.17
2018-04-25T02:03:55.241Z,4.67
2018-04-25T02:06:22.766Z,4.80
2018-04-25T02:08:50.236Z,5.30
2018-04-25T02:11:17.741Z,7.33
2018-04-25T02:13:45.424Z,4.17
2018-04-25T02:16:12.941Z,5.77
2018-04-25T02:18:40.425Z,5.50
2018-04-25T02:21:07.933Z,5.50
2018-04-25T02:23:35.449Z,5.80
2018-04-25T02:26:02.917Z,5.10
2018-04-25T02:28:30.561Z,4.87
2018-04-25T02:30:58.033Z,5.70
2018-04-25T02:33:25.517Z,10.73
2018-04-25T02:35:53.020Z,6.73
2018-04-25T02:38:20.493Z,4.57
2018-04-25T02:40:47.984Z,5.27
2018-04-25T02:43:15.683Z,5.13
2018-04-25T02:45:45.006Z,5.27
2018-04-25T02:48:12.492Z,5.17
2018-04-25T02:50:40.275Z,6.03
2018-04-25T02:53:07.756Z,6.07
2018-04-25T02:55:35.241Z,5.20
2018-04-25T02:58:02.955Z,5.33
2018-04-25T03:00:30.431Z,5.53
2018-04-25T03:02:57.902Z,5.90
2018-04-25T03:05:25.705Z,9.40
2018-04-25T03:07:53.181Z,5.67
2018-04-25T03:10:20.656Z,6.30
2018-04-25T03:12:48.188Z,5.57
2018-04-25T03:15:15.665Z,4.50
2018-04-25T03:17:43.150Z,5.30
2018-04-25T03:20:10.677Z,5.50
2018-04-25T03:22:38.233Z,5.27
2018-04-25T03:25:05.657Z,5.80
2018-04-25T03:27:33.304Z,6.87
2018-04-25T03:30:00.788Z,6.10
2018-04-25T03:32:28.257Z,7.43
2018-04-25T03:34:55.768Z,5.63
2018-04-25T03:37:23.240Z,5.90
2018-04-25T03:39:50.745Z,6.60
2018-04-25T03:42:18.253Z,7.37
2018-04-25T03:44:45.761Z,10.63
2018-04-25T03:47:13.284Z,6.43
2018-04-25T03:49:40.758Z,7.43
2018-04-25T03:52:08.233Z,11.57
2018-04-25T03:54:35.752Z,10.00
2018-04-25T03:57:03.221Z,8.30
2018-04-25T03:59:30.825Z,6.93
2018-04-25T04:01:58.317Z,6.80
2018-04-25T04:04:25.789Z,8.00
2018-04-25T04:06:53.293Z,13.43
2018-04-25T04:09:20.776Z,7.50
2018-04-25T04:11:48.620Z,6.87
2018-04-25T04:14:16.093Z,10.00
2018-04-25T04:16:43.563Z,8.90
2018-04-25T04:19:11.060Z,11.67
2018-04-25T04:21:38.564Z,7.73
2018-04-25T04:24:06.089Z,7.93
2018-04-25T04:26:33.562Z,8.50
2018-04-25T04:29:01.037Z,8.53
2018-04-25T04:31:28.540Z,6.87
2018-04-25T04:33:56.017Z,10.53
2018-04-25T04:36:23.685Z,8.80
2018-04-25T04:38:51.153Z,6.77
2018-04-25T04:41:18.621Z,7.17
2018-04-25T04:43:46.145Z,7.87
2018-04-25T04:46:13.637Z,7.13
2018-04-25T04:48:41.452Z,7.30
2018-04-25T04:51:08.958Z,7.67
2018-04-25T04:53:36.441Z,12.50
2018-04-25T04:56:03.964Z,7.23
2018-04-25T04:58:31.453Z,9.50
2018-04-25T05:00:59.052Z,8.33
2018-04-25T05:03:26.529Z,7.33
2018-04-25T05:05:54.024Z,6.57
2018-04-25T05:08:21.688Z,17.67
2018-04-25T05:10:49.153Z,8.03
2018-04-25T05:13:16.853Z,17.23
2018-04-25T05:15:44.345Z,13.90
2018-04-25T05:18:11.845Z,6.40
2018-04-25T05:20:39.341Z,8.90
2018-04-25T05:23:06.821Z,11.23
2018-04-25T05:25:34.612Z,5.47
2018-04-25T05:28:02.089Z,6.03
2018-04-25T05:30:29.586Z,10.70
2018-04-25T05:32:57.085Z,9.03
2018-04-25T05:35:24.583Z,10.63
2018-04-25T05:37:52.273Z,6.10
2018-04-25T05:40:19.760Z,6.13
2018-04-25T05:42:47.241Z,6.90
2018-04-25T05:45:14.744Z,8.10
2018-04-25T05:47:42.257Z,6.30
2018-04-25T05:50:09.784Z,15.20
2018-04-25T05:52:37.256Z,6.53
2018-04-25T05:55:04.742Z,14.63
2018-04-25T05:57:32.255Z,12.13
2018-04-25T05:59:59.753Z,8.13
2018-04-25T06:02:27.377Z,7.30
2018-04-25T06:04:54.854Z,6.53
2018-04-25T06:07:22.341Z,9.00
2018-04-25T06:09:49.845Z,8.57
2018-04-25T06:12:17.392Z,7.23
2018-04-25T06:14:45.029Z,9.83
2018-04-25T06:17:12.517Z,12.10
2018-04-25T06:19:40.004Z,12.97
2018-04-25T06:22:07.517Z,21.37
2018-04-25T06:24:35.000Z,12.80
2018-04-25T06:27:02.537Z,7.77
2018-04-25T06:29:30.024Z,14.97
2018-04-25T06:31:57.517Z,11.13
2018-04-25T06:34:25.025Z,7.70
2018-04-25T06:36:52.501Z,9.80
2018-04-25T06:39:20.023Z,7.53
2018-04-25T06:41:47.538Z,7.93
2018-04-25T06:44:15.037Z,13.53
2018-04-25T06:46:42.548Z,6.50
2018-04-25T06:49:10.030Z,8.43
2018-04-25T06:51:37.816Z,6.90
2018-04-25T06:54:05.305Z,5.47
2018-04-25T06:56:32.788Z,14.87
2018-04-25T06:59:00.334Z,6.53
2018-04-25T07:01:27.815Z,9.70
2018-04-25T07:03:55.328Z,7.10
2018-04-25T07:06:22.824Z,6.90
2018-04-25T07:08:50.320Z,17.30
2018-04-25T07:11:17.836Z,9.37
2018-04-25T07:13:45.321Z,7.50
2018-04-25T07:16:12.833Z,8.93
2018-04-25T07:18:40.326Z,12.27
2018-04-25T07:21:07.801Z,8.90
2018-04-25T07:23:35.306Z,12.53
2018-04-25T07:26:02.788Z,16.47
2018-04-25T07:28:30.449Z,14.87
2018-04-25T07:30:57.924Z,8.83
2018-04-25T07:33:25.406Z,8.87
2018-04-25T07:35:52.909Z,11.80
2018-04-25T07:38:20.413Z,11.33
2018-04-25T07:40:48.055Z,17.63
2018-04-25T07:43:15.528Z,9.13
2018-04-25T07:45:43.026Z,7.90
2018-04-25T07:48:10.533Z,13.07
2018-04-25T07:50:38.036Z,11.17
2018-04-25T07:53:05.545Z,13.73
2018-04-25T07:55:33.028Z,13.77
2018-04-25T07:58:00.515Z,17.00
2018-04-25T08:00:28.026Z,22.40
2018-04-25T08:02:55.549Z,9.77
2018-04-25T08:05:23.078Z,13.70
2018-04-25T08:07:50.585Z,19.23
2018-04-25T08:10:18.069Z,10.90
2018-04-25T08:12:57.541Z,12.97
2018-04-25T08:15:36.874Z,13.47
2018-04-25T08:18:16.068Z,14.83
2018-04-25T08:20:55.433Z,10.03
2018-04-25T08:23:22.957Z,10.53
2018-04-25T08:25:50.453Z,13.03
2018-04-25T08:28:17.970Z,9.90
2018-04-25T08:30:45.450Z,24.90
2018-04-25T08:33:12.964Z,15.60
2018-04-25T08:35:40.481Z,11.83
2018-04-25T08:38:07.960Z,12.00
2018-04-25T08:40:35.614Z,11.03
2018-04-25T08:43:03.092Z,15.10
2018-04-25T08:45:30.588Z,11.33
2018-04-25T08:47:58.102Z,20.63
2018-04-25T08:50:25.589Z,15.17
2018-04-25T08:52:53.107Z,11.10
2018-04-25T08:55:20.585Z,23.83
2018-04-25T08:57:48.072Z,29.03
2018-04-25T09:00:15.575Z,17.40
2018-04-25T09:02:43.093Z,19.57
2018-04-25T09:05:10.927Z,15.90
2018-04-25T09:07:38.433Z,25.73
2018-04-25T09:10:05.923Z,25.87
2018-04-25T09:12:33.432Z,11.23
2018-04-25T09:15:00.911Z,10.73
2018-04-25T09:17:28.688Z,14.30
2018-04-25T09:19:56.176Z,17.97
2018-04-25T09:22:23.669Z,17.73
2018-04-25T09:24:51.192Z,15.47
2018-04-25T09:27:18.686Z,16.30
2018-04-25T09:29:46.209Z,15.97
2018-04-25T09:32:13.688Z,16.77
2018-04-25T09:34:41.181Z,32.07
2018-04-25T09:37:08.689Z,14.53
2018-04-25T09:39:36.168Z,9.73
2018-04-25T09:42:03.897Z,12.40
2018-04-25T09:44:31.378Z,11.60
2018-04-25T09:46:58.857Z,17.13
2018-04-25T09:49:26.377Z,14.43
2018-04-25T09:51:53.907Z,10.20
2018-04-25T09:54:21.541Z,22.10
2018-04-25T09:56:49.025Z,17.33
2018-04-25T09:59:16.501Z,18.87
2018-04-25T10:01:43.997Z,8.03
2018-04-25T10:04:11.472Z,15.13
2018-04-25T10:06:38.970Z,7.77
2018-04-25T10:09:06.445Z,8.13
2018-04-25T10:11:34.160Z,9.53
2018-04-25T10:14:01.648Z,6.00
2018-04-25T10:16:29.129Z,8.20
2018-04-25T10:18:56.640Z,14.30
2018-04-25T10:21:24.120Z,14.13
2018-04-25T10:23:52.101Z,10.03
2018-04-25T10:26:19.585Z,17.93
2018-04-25T10:28:47.070Z,13.47
2018-04-25T10:31:14.584Z,9.17
2018-04-25T10:33:42.060Z,8.60
2018-04-25T10:36:10.094Z,8.83
2018-04-25T10:38:37.573Z,7.80
2018-04-25T10:41:05.058Z,14.60
2018-04-25T10:43:32.598Z,10.67
2018-04-25T10:46:00.087Z,9.40
2018-04-25T10:48:27.860Z,7.30
2018-04-25T10:50:55.369Z,22.43
2018-04-25T10:53:22.844Z,8.57
2018-04-25T10:55:50.345Z,6.93
2018-04-25T10:58:17.825Z,7.80
2018-04-25T11:00:45.515Z,20.17
2018-04-25T11:03:12.989Z,6.37
2018-04-25T11:05:40.465Z,7.53
2018-04-25T11:08:07.961Z,7.97
2018-04-25T11:10:35.477Z,14.73
2018-04-25T11:13:03.233Z,8.40
2018-04-25T11:15:30.721Z,10.00
2018-04-25T11:17:58.201Z,11.50
2018-04-25T11:20:25.785Z,11.63
2018-04-25T11:22:53.224Z,5.00
2018-04-25T11:25:20.992Z,7.03
2018-04-25T11:27:48.473Z,6.73
2018-04-25T11:30:15.976Z,9.90
2018-04-25T11:32:43.489Z,10.77
2018-04-25T11:35:10.964Z,4.23
2018-04-25T11:37:38.648Z,6.53
2018-04-25T11:40:06.142Z,10.50
2018-04-25T11:42:33.640Z,4.67
2018-04-25T11:45:01.137Z,4.70
2018-04-25T11:47:28.633Z,20.03
2018-04-25T11:49:56.375Z,5.47
2018-04-25T11:52:23.885Z,14.37
2018-04-25T11:54:57.297Z,4.90
2018-04-25T11:57:24.779Z,5.13
2018-04-25T11:59:52.259Z,6.23
2018-04-25T12:02:19.822Z,4.87
2018-04-25T12:04:47.324Z,4.60
2018-04-25T12:07:14.937Z,15.27
2018-04-25T12:09:42.417Z,7.70
2018-04-25T12:12:09.898Z,8.53
2018-04-25T12:14:37.394Z,6.37
2018-04-25T12:17:04.869Z,4.93
2018-04-25T12:19:32.593Z,5.77
2018-04-25T12:22:00.078Z,6.03
2018-04-25T12:24:27.617Z,7.27
2018-04-25T12:26:55.102Z,7.03
2018-04-25T12:29:22.591Z,4.80
2018-04-25T12:31:50.353Z,4.90
2018-04-25T12:34:17.829Z,2.33
2018-04-25T12:36:45.309Z,2.77
2018-04-25T12:39:12.813Z,1.87
2018-04-25T12:41:40.363Z,5.33
2018-04-25T12:44:08.213Z,7.43
2018-04-25T12:46:35.706Z,5.40
2018-04-25T12:49:03.195Z,3.77
2018-04-25T12:51:30.696Z,6.37
2018-04-25T12:53:58.195Z,3.23
2018-04-25T12:56:25.707Z,14.13
2018-04-25T12:58:53.188Z,2.57
2018-04-25T13:01:20.675Z,3.30
2018-04-25T13:03:48.183Z,2.43
2018-04-25T13:06:15.661Z,2.80
2018-04-25T13:08:43.341Z,1.40
2018-04-25T13:11:10.824Z,2.40
2018-04-25T13:13:38.313Z,1.37
2018-04-25T13:16:05.850Z,2.00
2018-04-25T13:18:33.322Z,0.93
2018-04-25T13:21:01.073Z,2.90
2018-04-25T13:23:28.553Z,3.00
2018-04-25T13:25:56.029Z,1.30
2018-04-25T13:28:23.533Z,1.40
2018-04-25T13:30:51.015Z,4.63
2018-04-25T13:33:18.833Z,1.73
2018-04-25T13:35:46.308Z,4.70
2018-04-25T13:38:13.804Z,2.33
2018-04-25T13:40:41.309Z,3.77
2018-04-25T13:43:08.810Z,1.67
2018-04-25T13:45:36.345Z,2.20
2018-04-25T13:48:03.828Z,1.90
2018-04-25T13:50:31.454Z,2.03
2018-04-25T13:52:58.936Z,2.87
2018-04-25T13:55:26.409Z,3.93
2018-04-25T13:57:53.916Z,7.03
2018-04-25T14:00:21.394Z,2.40
2018-04-25T14:02:49.076Z,2.73
2018-04-25T14:05:16.586Z,4.43
2018-04-25T14:07:44.068Z,2.60
2018-04-25T14:10:11.605Z,2.50
2018-04-25T14:12:39.090Z,2.83
2018-04-25T14:15:06.598Z,8.00
2018-04-25T14:17:34.134Z,2.60
2018-04-25T14:20:01.666Z,2.40
2018-04-25T14:22:29.146Z,2.30
2018-04-25T14:24:56.645Z,1.50
2018-04-25T14:27:24.183Z,1.50
2018-04-25T14:29:51.661Z,8.63
2018-04-25T14:32:19.164Z,1.23
2018-04-25T14:34:46.649Z,4.67
2018-04-25T14:37:14.281Z,3.60
2018-04-25T14:39:41.781Z,4.53
2018-04-25T14:42:09.281Z,1.10
2018-04-25T14:44:36.781Z,3.37
2018-04-25T14:47:04.294Z,3.03
2018-04-25T14:49:31.801Z,2.43
2018-04-25T14:51:59.318Z,0.80
2018-04-25T14:54:26.846Z,0.97
2018-04-25T14:56:54.325Z,1.33
2018-04-25T14:59:22.121Z,1.40
2018-04-25T15:01:49.605Z,1.43
2018-04-25T15:04:17.100Z,1.73
2018-04-25T15:06:43.912Z,2.47
2018-04-25T15:09:11.576Z,1.67
2018-04-25T15:11:39.086Z,3.03
2018-04-25T15:14:06.573Z,4.30
2018-04-25T15:16:34.092Z,2.60
2018-04-25T15:19:01.572Z,1.43
2018-04-25T15:21:29.068Z,1.80
2018-04-25T15:23:56.565Z,2.63
2018-04-25T15:26:24.081Z,3.83
2018-04-25T15:28:51.640Z,3.93
2018-04-25T15:31:19.121Z,2.47
2018-04-25T15:33:46.606Z,1.57
2018-04-25T15:36:14.113Z,3.43
2018-04-25T15:38:41.600Z,2.60
2018-04-25T15:41:09.119Z,3.47
2018-04-25T15:43:36.612Z,2.33
2018-04-25T15:46:04.133Z,2.00
2018-04-25T15:48:31.612Z,2.60
2018-04-25T15:50:59.092Z,3.03
2018-04-25T15:53:26.662Z,5.83
2018-04-25T15:55:54.102Z,2.73
2018-04-25T15:58:21.716Z,3.07
2018-04-25T16:00:49.203Z,2.43
2018-04-25T16:03:16.716Z,2.93
2018-04-25T16:05:44.225Z,2.43
2018-04-25T16:08:11.727Z,4.97
2018-04-25T16:10:39.230Z,2.10
2018-04-25T16:13:06.724Z,2.20
2018-04-25T16:15:34.239Z,2.53
2018-04-25T16:18:01.720Z,2.13
2018-04-25T16:20:29.237Z,2.47
2018-04-25T16:22:56.765Z,2.00
2018-04-25T16:25:24.221Z,3.90
2018-04-25T16:27:51.737Z,3.37
2018-04-25T16:30:19.217Z,1.60
2018-04-25T16:32:47.001Z,1.77
2018-04-25T16:35:14.478Z,2.93
2018-04-25T16:37:41.958Z,1.60
2018-04-25T16:40:09.505Z,1.90
2018-04-25T16:42:36.989Z,2.90
2018-04-25T16:45:04.493Z,2.17
2018-04-25T16:47:31.979Z,2.30
2018-04-25T16:49:59.701Z,2.60
2018-04-25T16:52:27.197Z,3.57
2018-04-25T16:54:54.689Z,2.23
2018-04-25T16:57:22.204Z,1.77
2018-04-25T16:59:49.698Z,1.90
2018-04-25T17:02:17.228Z,2.53
2018-04-25T17:04:44.732Z,1.90
2018-04-25T17:07:12.417Z,5.43
2018-04-25T17:09:39.998Z,3.57
2018-04-25T17:12:07.441Z,2.23
2018-04-25T17:14:34.946Z,2.50
2018-04-25T17:17:02.462Z,5.57
2018-04-25T17:19:29.979Z,2.60
2018-04-25T17:21:57.485Z,2.93
2018-04-25T17:24:25.211Z,2.30
2018-04-25T17:26:52.723Z,2.27
2018-04-25T17:29:20.217Z,2.57
2018-04-25T17:31:47.747Z,2.03
2018-04-25T17:34:15.272Z,2.67
2018-04-25T17:36:42.807Z,2.47
2018-04-25T17:39:10.311Z,2.57
2018-04-25T17:41:38.307Z,2.50
2018-04-25T17:44:05.801Z,6.13
2018-04-25T17:46:33.293Z,3.83
2018-04-25T17:49:00.820Z,2.70
2018-04-25T17:51:28.401Z,2.33
2018-04-25T17:53:55.929Z,2.70
2018-04-25T17:56:23.441Z,4.80
2018-04-25T17:58:51.095Z,2.50
2018-04-25T18:01:18.638Z,2.40
2018-04-25T18:03:46.142Z,1.97
2018-04-25T18:06:13.705Z,1.90
2018-04-25T18:08:41.242Z,2.57
2018-04-25T18:11:08.772Z,2.20
2018-04-25T18:13:36.303Z,3.80
2018-04-25T18:16:04.822Z,2.80
2018-04-25T18:18:32.337Z,2.77
2018-04-25T18:20:59.817Z,8.47
2018-04-25T18:23:27.372Z,5.60
2018-04-25T18:25:54.856Z,4.90
2018-04-25T18:28:22.608Z,2.70
2018-04-25T18:30:50.151Z,2.60
2018-04-25T18:33:17.773Z,2.53
2018-04-25T18:35:45.621Z,2.07
2018-04-25T18:38:13.716Z,2.00
2018-04-25T18:40:41.585Z,1.90
2018-04-25T18:43:09.474Z,2.33
2018-04-25T18:45:37.553Z,1.73
2018-04-25T18:48:05.434Z,3.63
2018-04-25T18:50:33.101Z,3.77
2018-04-25T18:53:00.903Z,1.43
2018-04-25T18:55:28.533Z,1.40
2018-04-25T18:57:56.327Z,1.73
2018-04-25T19:00:24.348Z,1.10
2018-04-25T19:02:52.599Z,7.13
2018-04-25T19:05:20.594Z,1.50
2018-04-25T19:07:48.784Z,3.83
2018-04-25T19:10:17.031Z,9.17
2018-04-25T19:12:45.969Z,1.13
2018-04-25T19:15:14.274Z,3.70
2018-04-25T19:17:42.436Z,1.10
2018-04-25T19:20:10.827Z,3.07
2018-04-25T19:22:38.884Z,0.90
2018-04-25T19:25:06.763Z,1.33
2018-04-25T19:27:35.168Z,1.73
2018-04-25T19:30:03.176Z,2.13
2018-04-25T19:32:31.901Z,1.00
2018-04-25T19:35:00.710Z,2.70
2018-04-25T19:37:28.943Z,2.03
2018-04-25T19:39:58.521Z,1.40
2018-04-25T19:42:26.897Z,3.60
2018-04-25T19:44:55.380Z,3.57
2018-04-25T19:47:23.963Z,1.53
2018-04-25T19:49:52.558Z,1.40
2018-04-25T19:52:20.948Z,1.97
2018-04-25T19:54:49.205Z,1.50
2018-04-25T19:57:18.000Z,1.50
2018-04-25T19:59:46.206Z,1.90
2018-04-25T20:02:14.262Z,1.20
2018-04-25T20:04:42.675Z,4.60
2018-04-25T20:07:12.114Z,3.60
2018-04-25T20:09:39.992Z,2.70
2018-04-25T20:12:08.300Z,1.80
2018-04-25T20:14:35.938Z,2.50
2018-04-25T20:17:03.832Z,2.27
2018-04-25T20:19:31.599Z,1.60
2018-04-25T20:22:00.109Z,1.80
2018-04-25T20:24:27.638Z,2.73
2018-04-25T20:26:55.150Z,1.90
2018-04-25T20:29:23.381Z,2.90
2018-04-25T20:31:50.882Z,1.53
2018-04-25T20:34:18.396Z,2.03
2018-04-25T20:36:45.947Z,19.83
2018-04-25T20:39:13.441Z,3.97
2018-04-25T20:41:40.962Z,1.57
2018-04-25T20:44:08.463Z,3.23
2018-04-25T20:46:35.943Z,3.00
2018-04-25T20:49:03.493Z,2.20
2018-04-25T20:51:31.051Z,2.47
2018-04-25T20:53:58.616Z,4.30
2018-04-25T20:56:26.105Z,2.17
2018-04-25T20:58:53.655Z,3.30
2018-04-25T21:01:21.149Z,2.67
2018-04-25T21:03:48.646Z,1.60
2018-04-25T21:06:16.205Z,2.33
2018-04-25T21:08:43.765Z,2.33
2018-04-25T21:11:11.366Z,3.43
2018-04-25T21:13:38.813Z,2.40
2018-04-25T21:16:06.467Z,3.30
2018-04-25T21:18:33.950Z,2.23
2018-04-25T21:21:01.430Z,2.13
2018-04-25T21:23:28.938Z,6.47
2018-04-25T21:25:56.417Z,2.47
2018-04-25T21:28:23.936Z,3.77
2018-04-25T21:30:51.427Z,2.60
2018-04-25T21:33:18.930Z,13.93
2018-04-25T21:35:46.445Z,3.43
2018-04-25T21:38:13.925Z,2.50
2018-04-25T21:40:41.432Z,2.67
2018-04-25T21:43:08.921Z,2.47
2018-04-25T21:45:36.599Z,4.80
2018-04-25T21:48:04.105Z,3.37
2018-04-25T21:50:31.581Z,7.50
2018-04-25T21:52:59.089Z,4.37
2018-04-25T21:55:26.573Z,3.17
2018-04-25T21:57:54.108Z,4.07
2018-04-25T22:00:21.638Z,2.80
2018-04-25T22:02:49.198Z,3.87
2018-04-25T22:05:16.747Z,2.50
2018-04-25T22:07:44.296Z,2.97
2018-04-25T22:10:11.839Z,3.33
2018-04-25T22:12:39.362Z,3.07
2018-04-25T22:15:06.919Z,7.13
2018-04-25T22:17:34.468Z,2.63
2018-04-25T22:20:02.017Z,13.73
2018-04-25T22:22:29.578Z,3.70
2018-04-25T22:24:57.132Z,2.83
2018-04-25T22:27:24.830Z,3.60
2018-04-25T22:29:52.351Z,2.70
2018-04-25T22:32:19.873Z,5.30
2018-04-25T22:34:47.456Z,2.97
2018-04-25T22:37:14.971Z,3.63
2018-04-25T22:39:42.518Z,4.10
2018-04-25T22:42:10.038Z,3.23
2018-04-25T22:44:37.838Z,3.50
2018-04-25T22:47:05.358Z,3.33
2018-04-25T22:49:32.875Z,2.47
2018-04-25T22:52:00.423Z,5.20
2018-04-25T22:54:27.948Z,4.10
2018-04-25T22:56:55.695Z,3.30
2018-04-25T22:59:23.222Z,3.30
2018-04-25T23:01:50.743Z,2.23
2018-04-25T23:04:18.322Z,1.80
2018-04-25T23:06:45.843Z,2.80
2018-04-25T23:09:13.397Z,2.97
2018-04-25T23:11:40.915Z,3.73
2018-04-25T23:14:08.717Z,2.20
2018-04-25T23:16:36.235Z,3.17
2018-04-25T23:19:03.755Z,2.67
2018-04-25T23:21:31.322Z,2.63
2018-04-25T23:23:58.835Z,2.57
2018-04-25T23:26:26.467Z,2.50
2018-04-25T23:28:53.982Z,3.30
2018-04-25T23:31:21.515Z,2.10
2018-04-25T23:33:49.075Z,3.70
2018-04-25T23:36:16.599Z,2.40
2018-04-25T23:38:44.524Z,3.90
2018-04-25T23:41:12.055Z,3.30
2018-04-25T23:43:39.566Z,3.87
2018-04-25T23:46:07.108Z,2.60
2018-04-25T23:48:34.625Z,2.63
2018-04-25T23:51:02.166Z,2.53
2018-04-25T23:53:29.709Z,2.53
2018-04-25T23:55:57.264Z,2.87
2018-04-25T23:58:24.790Z,5.57
